• Join FlightAware (Why Join?)
  • Login
  • US Flag 
11:34PM EDT


 

Airport Tracker/Info


-or-


 

Live Flight TrackerFlight Track Log ✈ N195JG ✈ 13-Aug-2013 ✈ KMMU - KRYY

Flight Track Log - Related Links

Times and Time Zones

All times are in EDT time to prevent confusion due to time zone crossing. See the N195JG flight status page for this flight to view local times or setup timezone preferences in your user account.

Time Position Orientation Groundspeed Altitude Reporting Facility
EDT Latitude Longitude Course Direction KTS MPH feet Rate Location/Type
02:55PM 40.8342 -74.3639 98° East 145 167 2,300  Level New York Center
02:56PM 40.8292 -74.3169 98° East 160 184 3,700 1,440 Climbing New York Center
02:57PM 40.7881 -74.3039 166° South 153 176 5,300 1,560 Climbing New York Center
02:58PM 40.7558 -74.3350 216° Southwest 147 169 6,800 1,440 Climbing New York Center
02:59PM 40.7317 -74.3722 229° Southwest 146 168 8,200 1,440 Climbing New York Center
03:00PM 40.7111 -74.4286 244° Southwest 151 174 9,800 1,440 Climbing New York Center
03:01PM 40.6933 -74.4686 240° Southwest 156 180 11,200 1,380 Climbing New York Center
03:02PM 40.6811 -74.5228 253° West 151 174 12,600 1,380 Climbing New York Center
03:03PM 40.6711 -74.5742 256° West 143 165 14,000 660 Climbing New York Center
03:04PM 40.6569 -74.6281 251° West 148 170 14,000 540 Level New York Center
03:05PM 40.6425 -74.6875 252° West 165 190 15,200 960 Climbing New York Center
03:06PM 40.6325 -74.7389 256° West 160 184 16,000 360 Climbing New York Center
03:07PM 40.6181 -74.7956 251° West 160 184 16,000  Level New York Center
03:08PM 40.6036 -74.8547 252° West 166 191 16,000  Level New York Center
03:09PM 40.5889 -74.9114 251° West 171 197 16,100 480 Climbing New York Center
03:10PM 40.5769 -74.9597 252° West 153 176 17,000 420 Climbing New York Center
03:11PM 40.5667 -75.0083 254° West 148 170 17,000 120 Level New York Center
03:12PM 40.5442 -75.0561 238° Southwest 153 176 17,300 840 Climbing New York Center
03:13PM 40.5153 -75.1033 231° Southwest 159 183 18,800 1,200 Climbing New York Center
03:14PM 40.4933 -75.1347 227° Southwest 148 170 19,800 960 Climbing New York Center
03:15PM 40.4692 -75.1742 231° Southwest 143 165 20,700 720 Climbing New York Center
03:16PM 40.4425 -75.2133 228° Southwest 143 165 21,300 540 Climbing New York Center
03:17PM 40.4158 -75.2581 232° Southwest 154 177 21,800 540 Climbing New York Center
03:18PM 40.3869 -75.3050 231° Southwest 159 183 22,400 540 Climbing New York Center
03:19PM 40.3600 -75.3525 233° Southwest 164 189 22,900 600 Climbing New York Center
03:20PM 40.3292 -75.3967 228° Southwest 169 194 23,600 540 Climbing New York Center
03:21PM 40.3044 -75.4414 234° Southwest 169 194 24,100 240 Climbing New York Center
03:22PM 40.2756 -75.4856 229° Southwest 169 194 24,100  Level New York Center
03:23PM 40.2444 -75.5350 231° Southwest 174 200 24,100  Level New York Center
03:24PM 40.2133 -75.5819 229° Southwest 174 200 24,100  Level New York Center
03:25PM 40.1883 -75.6372 239° Southwest 174 200 24,100  Level New York Center
03:26PM 40.1586 -75.6975 237° Southwest 179 206 24,100  Level New York Center
03:27PM 40.1314 -75.7500 236° Southwest 179 206 24,100  Level New York Center
03:28PM 40.1042 -75.8050 237° Southwest 184 212 24,100  Level New York Center
03:29PM 40.0769 -75.8547 234° Southwest 184 212 24,100  Level New York Center
03:30PM 40.0517 -75.9097 239° Southwest 184 212 24,100  Level New York Center
03:31PM 40.0242 -75.9619 235° Southwest 184 212 24,100  Level New York Center
03:32PM 39.9969 -76.0169 237° Southwest 184 212 24,100  Level New York Center
03:33PM 39.9694 -76.0717 237° Southwest 184 212 24,100  Level New York Center
03:34PM 39.9419 -76.1239 236° Southwest 184 212 24,100  Level New York Center
03:35PM 39.9144 -76.1783 237° Southwest 179 206 24,100  Level New York Center
03:36PM 39.8894 -76.2253 235° Southwest 179 206 24,100  Level New York Center
03:37PM 39.8600 -76.2769 233° Southwest 179 206 24,100  Level New York Center
03:39PM 39.8131 -76.3775 239° Southwest 181 208 24,100  Level Washington Center
03:40PM 39.7817 -76.4311 233° Southwest 181 208 24,100  Level Washington Center
03:41PM 39.7561 -76.4850 238° Southwest 181 208 24,100  Level Washington Center
03:42PM 39.7203 -76.5439 232° Southwest 189 217 24,100  Level Washington Center
03:43PM 39.6928 -76.5972 236° Southwest 189 217 24,100  Level Washington Center
03:44PM 39.6672 -76.6483 237° Southwest 189 217 24,100  Level Washington Center
03:45PM 39.6397 -76.7044 238° Southwest 189 217 24,100  Level Washington Center
03:46PM 39.6100 -76.7578 234° Southwest 189 217 24,100  Level Washington Center
03:47PM 39.5844 -76.8086 237° Southwest 189 217 24,100  Level Washington Center
03:48PM 39.5547 -76.8647 236° Southwest 189 217 24,100  Level Washington Center
03:49PM 39.5272 -76.9181 236° Southwest 189 217 24,100  Level Washington Center
03:50PM 39.4994 -76.9711 236° Southwest 189 217 24,100  Level Washington Center
03:51PM 39.4594 -77.0161 221° Southwest 189 217 24,100  Level Washington Center
03:52PM 39.4214 -77.0556 219° Southwest 189 217 24,100  Level Washington Center
03:53PM 39.3811 -77.1006 221° Southwest 189 217 24,100  Level Washington Center
03:54PM 39.3411 -77.1428 219° Southwest 189 217 24,100  Level Washington Center
03:55PM 39.3008 -77.1847 219° Southwest 189 217 24,100  Level Washington Center
03:56PM 39.2586 -77.2267 218° Southwest 189 217 24,100  Level Washington Center
03:57PM 39.2206 -77.2714 222° Southwest 189 217 24,100  Level Washington Center
03:58PM 39.1783 -77.3133 218° Southwest 189 217 24,100  Level Washington Center
03:59PM 39.1381 -77.3550 219° Southwest 189 217 24,100  Level Washington Center
04:00PM 39.0978 -77.3969 219° Southwest 189 217 24,100  Level Washington Center
04:01PM 39.0578 -77.4386 219° Southwest 189 217 24,100  Level Washington Center
04:02PM 39.0217 -77.4753 218° Southwest 189 217 24,100  Level Washington Center
04:03PM 38.9814 -77.5169 219° Southwest 189 217 24,100  Level Washington Center
04:04PM 38.9367 -77.5664 221° Southwest 189 217 24,100  Level Washington Center
04:05PM 38.8922 -77.6081 216° Southwest 189 217 24,100  Level Washington Center
04:06PM 38.8519 -77.6494 219° Southwest 189 217 24,100  Level Washington Center
04:07PM 38.8158 -77.6883 220° Southwest 184 212 24,100  Level Washington Center
04:08PM 38.7714 -77.7325 218° Southwest 189 217 24,100  Level Washington Center
04:09PM 38.7267 -77.7764 217° Southwest 189 217 24,100  Level Washington Center
04:10PM 38.6886 -77.8178 220° Southwest 189 217 24,100  Level Washington Center
04:11PM 38.6522 -77.8567 220° Southwest 189 217 24,100  Level Washington Center
04:12PM 38.6222 -77.8983 227° Southwest 182 209 24,100  Level Washington Center
04:13PM 38.5944 -77.9450 233° Southwest 169 194 24,100  Level Washington Center
04:14PM 38.5664 -77.9947 234° Southwest 164 189 24,100  Level Washington Center
04:15PM 38.5383 -78.0417 233° Southwest 170 196 24,100  Level Washington Center
04:16PM 38.5100 -78.0911 234° Southwest 177 204 24,100  Level Washington Center
04:17PM 38.4819 -78.1406 234° Southwest 177 204 24,100  Level Washington Center
04:18PM 38.4517 -78.1897 232° Southwest 177 204 24,100  Level Washington Center
04:19PM 38.4214 -78.2392 232° Southwest 177 204 24,100  Level Washington Center
04:20PM 38.3931 -78.2911 235° Southwest 177 204 24,100  Level Washington Center
04:21PM 38.3650 -78.3378 233° Southwest 177 204 24,100  Level Washington Center
04:22PM 38.3347 -78.3897 233° Southwest 177 204 24,100  Level Washington Center
04:23PM 38.3042 -78.4414 233° Southwest 177 204 24,100  Level Washington Center
04:24PM 38.2739 -78.4906 232° Southwest 177 204 24,100  Level Washington Center
04:25PM 38.2519 -78.5344 238° Southwest 171 197 24,100  Level Washington Center
04:26PM 38.2214 -78.5861 233° Southwest 171 197 24,100  Level Washington Center
04:27PM 38.1911 -78.6325 230° Southwest 171 197 24,100  Level Washington Center
04:28PM 38.1606 -78.6867 234° Southwest 176 203 24,100  Level Washington Center
04:29PM 38.1278 -78.7436 234° Southwest 181 208 24,100  Level Washington Center
04:30PM 38.0972 -78.7922 231° Southwest 181 208 24,100  Level Washington Center
04:31PM 38.0667 -78.8411 232° Southwest 181 208 24,100  Level Washington Center
04:32PM 38.0383 -78.8875 232° Southwest 181 208 24,100  Level Washington Center
04:33PM 38.0078 -78.9389 233° Southwest 186 214 24,100  Level Washington Center
04:34PM 37.9792 -78.9903 235° Southwest 186 214 24,100  Level Washington Center
04:35PM 37.9442 -79.0439 230° Southwest 186 214 24,100  Level Washington Center
04:36PM 37.9158 -79.0925 234° Southwest 186 214 24,100  Level Washington Center
04:37PM 37.8831 -79.1411 230° Southwest 181 208 24,100  Level Washington Center
04:38PM 37.8483 -79.1869 226° Southwest 181 208 24,100  Level Washington Center
04:39PM 37.8178 -79.2300 228° Southwest 186 214 24,100  Level Washington Center
04:40PM 37.7831 -79.2783 228° Southwest 192 221 24,100  Level Washington Center
04:41PM 37.7481 -79.3292 229° Southwest 192 221 24,100  Level Washington Center
04:42PM 37.7047 -79.3822 224° Southwest 192 221 24,100  Level Washington Center
04:43PM 37.6697 -79.4328 229° Southwest 187 215 24,100  Level Washington Center
04:44PM 37.6347 -79.4808 227° Southwest 187 215 24,100  Level Washington Center
04:45PM 37.5978 -79.5289 226° Southwest 187 215 24,100  Level Washington Center
04:46PM 37.5625 -79.5794 229° Southwest 187 215 24,100  Level Washington Center
04:47PM 37.5278 -79.6247 226° Southwest 187 215 24,100  Level Washington Center
04:48PM 37.4925 -79.6753 229° Southwest 187 215 24,100  Level Washington Center
04:49PM 37.4575 -79.7231 227° Southwest 187 215 24,100  Level Washington Center
04:50PM 37.4225 -79.7708 227° Southwest 193 222 24,100  Level Washington Center
04:51PM 37.3897 -79.8186 229° Southwest 193 222 24,100  Level Washington Center
04:52PM 37.3547 -79.8639 226° Southwest 193 222 24,100  Level Washington Center
04:53PM 37.3194 -79.9114 227° Southwest 188 216 24,100  Level Washington Center
04:54PM 37.2822 -79.9642 228° Southwest 188 216 24,100  Level Washington Center
04:55PM 37.2472 -80.0064 224° Southwest 188 216 24,100  Level Washington Center
04:56PM 37.2142 -80.0542 229° Southwest 188 216 24,100  Level Washington Center
04:57PM 37.1856 -80.0942 228° Southwest 188 216 24,100  Level Washington Center
04:58PM 37.1547 -80.1367 228° Southwest 183 211 24,100  Level Washington Center
04:59PM 37.1175 -80.1839 225° Southwest 183 211 24,100  Level Washington Center
05:00PM 37.0594 -80.2597 226° Southwest 183 211 24,100  Level Atlanta Center
05:01PM 37.0233 -80.3083 227° Southwest 188 216 24,100  Level Atlanta Center
05:02PM 36.9933 -80.3511 229° Southwest 188 216 24,100  Level Atlanta Center
05:03PM 36.9553 -80.3972 224° Southwest 193 222 24,100  Level Atlanta Center
05:04PM 36.9231 -80.4428 229° Southwest 193 222 24,100  Level Atlanta Center
05:05PM 36.8869 -80.4911 227° Southwest 188 216 24,100  Level Atlanta Center
05:06PM 36.8489 -80.5394 225° Southwest 188 216 24,100  Level Atlanta Center
05:07PM 36.8167 -80.5850 229° Southwest 188 216 24,100  Level Atlanta Center
05:08PM 36.7806 -80.6333 227° Southwest 193 222 24,100  Level Atlanta Center
05:09PM 36.7483 -80.6786 228° Southwest 193 222 24,100  Level Atlanta Center
05:10PM 36.7100 -80.7217 222° Southwest 180 207 24,100  Level Atlanta Center
05:11PM 36.6758 -80.7697 228° Southwest 185 213 24,100  Level Atlanta Center
05:12PM 36.6436 -80.8175 230° Southwest 185 213 24,100  Level Atlanta Center
05:13PM 36.6075 -80.8631 225° Southwest 185 213 24,100  Level Atlanta Center
05:15PM 36.5408 -80.9508 227° Southwest 175 201 24,100  Level Atlanta Center
05:16PM 36.5067 -80.9986 228° Southwest 175 201 24,100  Level Atlanta Center
05:17PM 36.4742 -81.0414 227° Southwest 175 201 24,100  Level Atlanta Center
05:18PM 36.4378 -81.0892 227° Southwest 181 208 24,100  Level Atlanta Center
05:19PM 36.4056 -81.1317 227° Southwest 181 208 24,100  Level Atlanta Center
05:20PM 36.3711 -81.1767 226° Southwest 181 208 24,100  Level Atlanta Center
05:21PM 36.3367 -81.2192 225° Southwest 176 203 24,100  Level Atlanta Center
05:22PM 36.3044 -81.2667 230° Southwest 176 203 24,100  Level Atlanta Center
05:23PM 36.2719 -81.3089 226° Southwest 176 203 24,100  Level Atlanta Center
05:24PM 36.2356 -81.3564 226° Southwest 176 203 24,100  Level Atlanta Center
05:25PM 36.1950 -81.4092 226° Southwest 181 208 24,100  Level Atlanta Center
05:26PM 36.1542 -81.4594 225° Southwest 200 230 24,100  Level Atlanta Center
05:27PM 36.1178 -81.5094 228° Southwest 200 230 24,100  Level Atlanta Center
05:28PM 36.0811 -81.5544 225° Southwest 194 223 24,100  Level Atlanta Center
05:29PM 36.0444 -81.6042 228° Southwest 199 229 24,100  Level Atlanta Center
05:30PM 36.0078 -81.6489 225° Southwest 199 229 24,100  Level Atlanta Center
05:31PM 35.9692 -81.7014 228° Southwest 199 229 24,100  Level Atlanta Center
05:32PM 35.9325 -81.7486 226° Southwest 199 229 24,100  Level Atlanta Center
05:33PM 35.8981 -81.7931 226° Southwest 199 229 24,100  Level Atlanta Center
05:34PM 35.8614 -81.8403 226° Southwest 199 229 24,100  Level Atlanta Center
05:35PM 35.8244 -81.8847 224° Southwest 194 223 24,100  Level Atlanta Center
05:36PM 35.7919 -81.9344 231° Southwest 194 223 24,100  Level Atlanta Center
05:37PM 35.7572 -81.9761 224° Southwest 194 223 24,100  Level Atlanta Center
05:38PM 35.7183 -82.0258 226° Southwest 199 229 24,100  Level Atlanta Center
05:39PM 35.6797 -82.0753 226° Southwest 204 235 24,100  Level Atlanta Center
05:40PM 35.6386 -82.1247 224° Southwest 204 235 24,100 -60 Level Atlanta Center
05:41PM 35.6039 -82.1692 226° Southwest 192 221 24,000  Descending Atlanta Center
05:42PM 35.5650 -82.2186 226° Southwest 197 227 24,100  Climbing Atlanta Center
05:43PM 35.5281 -82.2653 226° Southwest 197 227 24,100  Level Atlanta Center
05:44PM 35.4892 -82.3169 227° Southwest 197 227 24,100  Level Atlanta Center
05:45PM 35.4522 -82.3636 226° Southwest 197 227 24,100  Level Atlanta Center
05:46PM 35.4133 -82.4103 224° Southwest 197 227 24,100  Level Atlanta Center
05:47PM 35.3742 -82.4594 226° Southwest 197 227 24,100  Level Atlanta Center
05:48PM 35.3372 -82.5036 224° Southwest 197 227 24,100  Level Atlanta Center
05:49PM 35.3003 -82.5525 227° Southwest 197 227 24,100  Level Atlanta Center
05:50PM 35.2653 -82.5939 224° Southwest 197 227 24,100  Level Atlanta Center
05:51PM 35.2283 -82.6428 227° Southwest 197 227 24,100  Level Atlanta Center
05:52PM 35.1892 -82.6892 224° Southwest 197 227 24,100  Level Atlanta Center
05:53PM 35.1522 -82.7331 224° Southwest 197 227 24,100 -300 Level Atlanta Center
05:54PM 35.1172 -82.7919 234° Southwest 204 235 23,600 -900 Descending Atlanta Center
05:55PM 35.0825 -82.8508 234° Southwest 209 241 22,400 -1,320 Descending Atlanta Center
05:56PM 35.0494 -82.9072 234° Southwest 209 241 21,000 -1,200 Descending Atlanta Center
05:57PM 35.0144 -82.9608 231° Southwest 209 241 20,100 -900 Descending Atlanta Center
05:58PM 34.9817 -83.0119 232° Southwest 204 235 19,200 -900 Descending Atlanta Center
05:59PM 34.9486 -83.0658 233° Southwest 204 235 18,300 -1,020 Descending Atlanta Center
06:00PM 34.9117 -83.1244 232° Southwest 199 229 17,200 -960 Descending Atlanta Center
06:01PM 34.8828 -83.1728 234° Southwest 199 229 16,400 -960 Descending Atlanta Center
06:02PM 34.8456 -83.2339 233° Southwest 204 235 15,300 -1,020 Descending Atlanta Center
06:03PM 34.8144 -83.2822 232° Southwest 198 228 14,400 -900 Descending Atlanta Center
06:04PM 34.7814 -83.3331 232° Southwest 198 228 13,500 -900 Descending Atlanta Center
06:05PM 34.7464 -83.3917 234° Southwest 203 234 12,600 -960 Descending Atlanta Center
06:06PM 34.7172 -83.4400 234° Southwest 195 224 11,600 -960 Descending Atlanta Center
06:07PM 34.6842 -83.4881 230° Southwest 195 224 10,700 -900 Descending Atlanta Center
06:08PM 34.6553 -83.5389 235° Southwest 195 224 9,800 -900 Descending Atlanta Center
06:09PM 34.6344 -83.5894 243° Southwest 183 211 8,900 -900 Descending Atlanta Center
06:10PM 34.6097 -83.6375 238° Southwest 167 192 8,000 -900 Descending Atlanta Center
06:11PM 34.5889 -83.6906 245° Southwest 167 192 7,100 -480 Descending Atlanta Center
06:12PM 34.5578 -83.7361 230° Southwest 173 199 7,100 -60 Level Atlanta Center
06:13PM 34.5225 -83.7817 227° Southwest 184 212 7,000 -60 Descending Atlanta Center
06:15PM 34.4791 -83.8419 229° Southwest  Level FlightAware Approximate
06:15PM 34.4578 -83.8750 229° Southwest 184 212 7,000  Level Atlanta Center
06:16PM 34.4267 -83.9203 230° Southwest 184 212 7,100  Climbing Atlanta Center
06:17PM 34.3953 -83.9633 229° Southwest 184 212 7,100  Level Atlanta Center
06:18PM 34.3642 -84.0061 229° Southwest 184 212 7,100  Level Atlanta Center
06:19PM 34.3347 -84.0489 230° Southwest 184 212 7,100  Level Atlanta Center
06:20PM 34.3036 -84.0942 230° Southwest 184 212 7,100 -540 Level Atlanta Center
06:21PM 34.2764 -84.1444 237° Southwest 184 212 6,100 -960 Descending Atlanta Center
06:22PM 34.2469 -84.1947 235° Southwest 179 206 5,200 -900 Descending Atlanta Center
06:23PM 34.2117 -84.2372 225° Southwest 179 206 4,300 -600 Descending Atlanta Center
06:24PM 34.1781 -84.2822 228° Southwest 184 212 4,000 -420 Descending Atlanta Center
06:25PM 34.1444 -84.3275 228° Southwest 177 204 3,500 -600 Descending Atlanta Center
06:26PM 34.1167 -84.3667 229° Southwest 168 193 3,000 -300 Descending Atlanta TRACON
06:27PM 34.1000 -84.4000 239° Southwest 171 197 3,000  Level Atlanta TRACON
06:28PM 34.0500 -84.4500 220° Southwest 170 196 3,000 -240 Level Atlanta TRACON
06:29PM 34.0333 -84.4833 239° Southwest 166 191 2,600 -480 Descending Atlanta TRACON
06:30PM 34.0167 -84.5333 248° West 144 166 2,100 -600 Descending Atlanta TRACON
06:31PM 34.0167 -84.5667 270° West 131 151 1,400 -720 Descending Atlanta TRACON